sensor_id;sensor_type;location;lat;lon;timestamp;noise_LAeq;noise_LA_min;noise_LA_max;noise_LA01;noise_LA95
1754;Laerm;58380;48.312;9.246;2022-09-20T06:26:59;55.30;46.72;73.39;;
1754;Laerm;58380;48.312;9.246;2022-09-20T06:29:35;56.02;44.64;73.73;;
1754;Laerm;58380;48.312;9.246;2022-09-20T06:32:03;53.43;42.91;62.65;;
1754;Laerm;58380;48.312;9.246;2022-09-20T06:34:29;63.14;44.17;74.05;;
1754;Laerm;58380;48.312;9.246;2022-09-20T06:37:13;56.12;46.16;64.84;;
1754;Laerm;58380;48.312;9.246;2022-09-20T06:40:35;62.37;46.89;84.22;;
1754;Laerm;58380;48.312;9.246;2022-09-20T06:43:22;56.85;46.00;77.39;;
1754;Laerm;58380;48.312;9.246;2022-09-20T06:45:47;57.27;47.63;78.77;;
1754;Laerm;58380;48.312;9.246;2022-09-20T06:48:13;55.61;46.93;69.64;;
1754;Laerm;58380;48.312;9.246;2022-09-20T06:50:41;51.63;43.48;58.97;;
1754;Laerm;58380;48.312;9.246;2022-09-20T06:53:24;63.31;47.10;87.26;;
1754;Laerm;58380;48.312;9.246;2022-09-20T06:55:50;57.93;46.41;78.88;;
1754;Laerm;58380;48.312;9.246;2022-09-20T06:58:16;55.97;46.71;75.82;;
1754;Laerm;58380;48.312;9.246;2022-09-20T07:00:42;57.84;49.44;67.04;;
1754;Laerm;58380;48.312;9.246;2022-09-20T07:03:07;57.93;47.92;69.13;;
1754;Laerm;58380;48.312;9.246;2022-09-20T07:05:33;61.06;47.14;80.03;;
1754;Laerm;58380;48.312;9.246;2022-09-20T07:08:00;59.06;47.53;73.74;;
1754;Laerm;58380;48.312;9.246;2022-09-20T07:10:26;58.16;46.97;71.41;;
1754;Laerm;58380;48.312;9.246;2022-09-20T07:13:00;56.92;47.68;69.13;;
1754;Laerm;58380;48.312;9.246;2022-09-20T07:15:33;62.62;47.83;84.17;;
1754;Laerm;58380;48.312;9.246;2022-09-20T07:17:59;58.80;44.57;77.27;;
1754;Laerm;58380;48.312;9.246;2022-09-20T07:20:25;59.06;46.45;73.04;;
1754;Laerm;58380;48.312;9.246;2022-09-20T07:22:51;57.42;48.49;71.91;;
1754;Laerm;58380;48.312;9.246;2022-09-20T07:25:19;57.56;48.68;70.08;;
1754;Laerm;58380;48.312;9.246;2022-09-20T07:27:51;63.29;47.61;84.37;;
1754;Laerm;58380;48.312;9.246;2022-09-20T07:30:18;59.50;48.57;83.83;;
1754;Laerm;58380;48.312;9.246;2022-09-20T07:32:44;55.33;45.93;71.62;;
1754;Laerm;58380;48.312;9.246;2022-09-20T07:35:14;54.73;46.31;72.22;;
1754;Laerm;58380;48.312;9.246;2022-09-20T07:41:09;61.07;46.12;82.75;;
1754;Laerm;58380;48.312;9.246;2022-09-20T07:43:35;57.77;49.06;77.41;;
1754;Laerm;58380;48.312;9.246;2022-09-20T07:46:02;54.53;47.34;70.07;;
1754;Laerm;58380;48.312;9.246;2022-09-20T07:48:33;55.57;48.64;69.49;;
1754;Laerm;58380;48.312;9.246;2022-09-20T07:51:12;52.56;47.71;62.91;;
1754;Laerm;58380;48.312;9.246;2022-09-20T07:53:39;60.28;48.41;80.83;;
1754;Laerm;58380;48.312;9.246;2022-09-20T07:56:14;61.55;49.40;82.59;;
1754;Laerm;58380;48.312;9.246;2022-09-20T07:58:41;60.60;51.23;75.73;;
1754;Laerm;58380;48.312;9.246;2022-09-20T08:01:10;59.88;50.85;72.64;;
1754;Laerm;58380;48.312;9.246;2022-09-20T08:03:38;60.72;49.98;77.53;;
1754;Laerm;58380;48.312;9.246;2022-09-20T08:06:11;58.18;47.90;78.00;;
1754;Laerm;58380;48.312;9.246;2022-09-20T08:08:39;54.67;47.11;75.74;;
1754;Laerm;58380;48.312;9.246;2022-09-20T08:11:07;56.27;47.64;70.04;;
1754;Laerm;58380;48.312;9.246;2022-09-20T08:13:48;58.83;50.55;68.92;;
1754;Laerm;58380;48.312;9.246;2022-09-20T08:16:14;62.64;46.94;85.89;;
1754;Laerm;58380;48.312;9.246;2022-09-20T08:18:50;57.21;47.21;75.19;;
1754;Laerm;58380;48.312;9.246;2022-09-20T08:21:17;58.73;48.38;76.87;;
1754;Laerm;58380;48.312;9.246;2022-09-20T08:23:45;60.33;51.10;78.36;;
1754;Laerm;58380;48.312;9.246;2022-09-20T08:26:18;60.99;47.27;76.52;;
1754;Laerm;58380;48.312;9.246;2022-09-20T08:28:46;62.74;50.11;82.40;;
1754;Laerm;58380;48.312;9.246;2022-09-20T08:31:17;60.72;49.57;79.86;;
1754;Laerm;58380;48.312;9.246;2022-09-20T08:33:47;61.18;51.27;71.64;;
1754;Laerm;58380;48.312;9.246;2022-09-20T08:36:20;59.81;50.66;71.40;;
1754;Laerm;58380;48.312;9.246;2022-09-20T08:38:46;57.99;49.02;74.02;;
1754;Laerm;58380;48.312;9.246;2022-09-20T08:41:45;61.12;48.17;85.71;;
1754;Laerm;58380;48.312;9.246;2022-09-20T08:44:29;60.31;45.81;81.66;;
1754;Laerm;58380;48.312;9.246;2022-09-20T08:47:18;54.95;45.88;74.88;;
1754;Laerm;58380;48.312;9.246;2022-09-20T08:49:45;55.08;47.72;77.07;;
1754;Laerm;58380;48.312;9.246;2022-09-20T08:52:18;51.12;44.44;63.58;;
1754;Laerm;58380;48.312;9.246;2022-09-20T08:54:45;60.85;48.13;81.40;;
1754;Laerm;58380;48.312;9.246;2022-09-20T08:57:19;57.55;46.50;74.49;;
1754;Laerm;58380;48.312;9.246;2022-09-20T08:59:45;59.83;50.52;74.62;;
1754;Laerm;58380;48.312;9.246;2022-09-20T09:02:18;59.23;50.86;69.58;;
1754;Laerm;58380;48.312;9.246;2022-09-20T09:04:45;59.23;47.54;78.68;;
1754;Laerm;58380;48.312;9.246;2022-09-20T09:07:15;56.56;47.69;81.51;;
1754;Laerm;58380;48.312;9.246;2022-09-20T09:09:43;54.62;48.08;70.24;;
1754;Laerm;58380;48.312;9.246;2022-09-20T09:12:32;54.40;47.04;70.11;;
1754;Laerm;58380;48.312;9.246;2022-09-20T09:15:23;55.48;45.92;78.49;;
1754;Laerm;58380;48.312;9.246;2022-09-20T09:17:52;59.09;45.90;74.43;;
1754;Laerm;58380;48.312;9.246;2022-09-20T09:20:22;60.63;49.42;76.01;;
1754;Laerm;58380;48.312;9.246;2022-09-20T09:23:04;58.49;48.57;74.43;;
1754;Laerm;58380;48.312;9.246;2022-09-20T09:25:38;58.14;47.24;68.98;;
1754;Laerm;58380;48.312;9.246;2022-09-20T09:30:41;61.01;51.01;80.50;;
1754;Laerm;58380;48.312;9.246;2022-09-20T09:36:07;62.19;50.97;82.32;;
1754;Laerm;58380;48.312;9.246;2022-09-20T09:38:38;56.76;46.99;70.95;;
1754;Laerm;58380;48.312;9.246;2022-09-20T09:41:28;54.58;43.82;77.03;;
1754;Laerm;58380;48.312;9.246;2022-09-20T09:44:02;52.11;45.06;66.22;;
1754;Laerm;58380;48.312;9.246;2022-09-20T09:46:33;50.77;44.62;65.23;;
1754;Laerm;58380;48.312;9.246;2022-09-20T09:49:09;53.20;46.05;68.93;;
1754;Laerm;58380;48.312;9.246;2022-09-20T09:51:37;61.59;50.57;78.53;;
1754;Laerm;58380;48.312;9.246;2022-09-20T09:54:04;60.83;50.55;74.88;;
1754;Laerm;58380;48.312;9.246;2022-09-20T10:00:07;60.19;47.20;81.78;;
1754;Laerm;58380;48.312;9.246;2022-09-20T10:05:24;45.66;38.70;57.06;;
1754;Laerm;58380;48.312;9.246;2022-09-20T10:14:11;49.79;38.22;59.71;;
1754;Laerm;58380;48.312;9.246;2022-09-20T10:23:05;43.71;34.19;53.06;;
1754;Laerm;58380;48.312;9.246;2022-09-20T10:26:27;45.51;35.54;58.68;;
1754;Laerm;58380;48.312;9.246;2022-09-20T10:31:43;44.95;37.35;56.13;;
1754;Laerm;58380;48.312;9.246;2022-09-20T10:34:37;45.03;33.91;53.46;;
1754;Laerm;58380;48.312;9.246;2022-09-20T10:37:22;44.39;37.14;54.57;;
1754;Laerm;58380;48.312;9.246;2022-09-20T10:44:07;45.19;37.36;55.52;;
1754;Laerm;58380;48.312;9.246;2022-09-20T10:47:13;46.66;38.48;60.72;;
1754;Laerm;58380;48.312;9.246;2022-09-20T10:50:17;46.38;36.11;58.51;;
1754;Laerm;58380;48.312;9.246;2022-09-20T10:53:05;50.03;40.56;66.78;;
1754;Laerm;58380;48.312;9.246;2022-09-20T11:01:51;47.33;36.98;55.60;;
1754;Laerm;58380;48.312;9.246;2022-09-20T11:04:33;53.78;38.55;67.93;;
1754;Laerm;58380;48.312;9.246;2022-09-20T11:09:58;51.08;42.81;60.88;;
1754;Laerm;58380;48.312;9.246;2022-09-20T11:12:40;55.95;44.20;78.08;;
1754;Laerm;58380;48.312;9.246;2022-09-20T11:15:23;49.56;42.03;62.86;;
1754;Laerm;58380;48.312;9.246;2022-09-20T11:18:18;58.06;46.71;71.46;;
1754;Laerm;58380;48.312;9.246;2022-09-20T11:21:04;56.41;46.90;69.00;;
1754;Laerm;58380;48.312;9.246;2022-09-20T11:23:46;59.98;46.41;81.88;;
1754;Laerm;58380;48.312;9.246;2022-09-20T11:31:48;60.18;48.54;74.34;;
1754;Laerm;58380;48.312;9.246;2022-09-20T11:34:25;57.55;47.34;70.92;;
1754;Laerm;58380;48.312;9.246;2022-09-20T11:36:56;60.50;44.48;84.87;;
1754;Laerm;58380;48.312;9.246;2022-09-20T11:42:04;57.90;46.63;74.75;;
1754;Laerm;58380;48.312;9.246;2022-09-20T11:44:31;58.18;45.96;79.02;;
1754;Laerm;58380;48.312;9.246;2022-09-20T11:58:19;53.81;46.23;64.80;;
1754;Laerm;58380;48.312;9.246;2022-09-20T12:00:49;53.20;43.73;66.10;;
1754;Laerm;58380;48.312;9.246;2022-09-20T12:03:38;55.34;43.06;72.74;;
1754;Laerm;58380;48.312;9.246;2022-09-20T12:06:07;52.55;45.26;66.08;;
1754;Laerm;58380;48.312;9.246;2022-09-20T12:08:40;51.91;43.64;66.47;;
1754;Laerm;58380;48.312;9.246;2022-09-20T12:11:09;58.47;47.66;71.25;;
1754;Laerm;58380;48.312;9.246;2022-09-20T12:13:40;58.44;45.94;77.69;;
1754;Laerm;58380;48.312;9.246;2022-09-20T12:16:15;53.39;43.73;71.89;;
1754;Laerm;58380;48.312;9.246;2022-09-20T12:19:05;54.61;43.77;74.01;;
1754;Laerm;58380;48.312;9.246;2022-09-20T12:24:44;52.93;44.50;64.34;;
1754;Laerm;58380;48.312;9.246;2022-09-20T12:30:20;51.84;41.67;73.93;;
1754;Laerm;58380;48.312;9.246;2022-09-20T12:32:50;50.76;42.65;73.80;;
1754;Laerm;58380;48.312;9.246;2022-09-20T12:35:56;50.63;43.26;61.21;;
1754;Laerm;58380;48.312;9.246;2022-09-20T12:38:27;51.08;44.27;61.00;;
1754;Laerm;58380;48.312;9.246;2022-09-20T12:41:18;52.10;45.49;63.54;;
1754;Laerm;58380;48.312;9.246;2022-09-20T12:44:05;55.41;45.79;69.29;;
1754;Laerm;58380;48.312;9.246;2022-09-20T12:46:56;53.86;46.74;67.98;;
1754;Laerm;58380;48.312;9.246;2022-09-20T12:49:33;51.38;45.49;62.98;;
1754;Laerm;58380;48.312;9.246;2022-09-20T12:52:27;49.27;44.21;65.82;;
1754;Laerm;58380;48.312;9.246;2022-09-20T13:03:40;53.12;41.80;65.30;;
1754;Laerm;58380;48.312;9.246;2022-09-20T13:08:46;49.48;42.67;58.96;;
1754;Laerm;58380;48.312;9.246;2022-09-20T13:11:18;49.63;40.84;66.09;;
1754;Laerm;58380;48.312;9.246;2022-09-20T13:13:48;48.81;39.80;60.59;;
1754;Laerm;58380;48.312;9.246;2022-09-20T13:16:21;52.17;45.20;66.38;;
1754;Laerm;58380;48.312;9.246;2022-09-20T13:19:02;50.88;42.21;63.55;;
1754;Laerm;58380;48.312;9.246;2022-09-20T13:21:38;51.35;42.42;68.29;;
1754;Laerm;58380;48.312;9.246;2022-09-20T13:24:06;50.04;41.82;62.76;;
1754;Laerm;58380;48.312;9.246;2022-09-20T13:26:44;50.70;41.18;60.58;;
1754;Laerm;58380;48.312;9.246;2022-09-20T13:29:29;50.58;43.67;61.19;;
1754;Laerm;58380;48.312;9.246;2022-09-20T13:32:33;50.49;41.28;66.33;;
1754;Laerm;58380;48.312;9.246;2022-09-20T13:40:32;47.63;40.27;55.59;;
1754;Laerm;58380;48.312;9.246;2022-09-20T13:43:04;46.32;41.65;58.72;;
1754;Laerm;58380;48.312;9.246;2022-09-20T13:45:31;48.15;42.32;60.76;;
1754;Laerm;58380;48.312;9.246;2022-09-20T13:47:59;51.62;43.55;65.46;;
1754;Laerm;58380;48.312;9.246;2022-09-20T13:53:00;48.61;41.75;62.55;;
1754;Laerm;58380;48.312;9.246;2022-09-20T13:55:35;48.70;43.02;63.56;;
1754;Laerm;58380;48.312;9.246;2022-09-20T13:58:07;49.87;42.98;61.76;;
1754;Laerm;58380;48.312;9.246;2022-09-20T14:00:36;51.38;44.44;67.82;;
1754;Laerm;58380;48.312;9.246;2022-09-20T14:03:03;61.24;48.34;77.68;;
1754;Laerm;58380;48.312;9.246;2022-09-20T14:05:30;56.60;46.93;71.12;;
1754;Laerm;58380;48.312;9.246;2022-09-20T14:07:58;59.95;49.87;73.71;;
1754;Laerm;58380;48.312;9.246;2022-09-20T14:13:02;49.84;43.91;63.42;;
1754;Laerm;58380;48.312;9.246;2022-09-20T14:15:36;48.13;40.20;66.04;;
1754;Laerm;58380;48.312;9.246;2022-09-20T14:18:05;50.05;42.11;61.26;;
1754;Laerm;58380;48.312;9.246;2022-09-20T14:20:32;48.74;41.92;60.86;;
1754;Laerm;58380;48.312;9.246;2022-09-20T14:22:59;48.59;42.09;65.69;;
1754;Laerm;58380;48.312;9.246;2022-09-20T14:25:26;50.00;43.10;67.98;;
1754;Laerm;58380;48.312;9.246;2022-09-20T14:28:24;49.48;40.68;60.85;;
1754;Laerm;58380;48.312;9.246;2022-09-20T14:30:50;48.61;40.22;63.33;;
1754;Laerm;58380;48.312;9.246;2022-09-20T14:33:19;49.13;39.86;63.53;;
1754;Laerm;58380;48.312;9.246;2022-09-20T14:35:50;48.96;43.28;60.50;;
1754;Laerm;58380;48.312;9.246;2022-09-20T14:38:24;50.59;42.41;63.38;;
1754;Laerm;58380;48.312;9.246;2022-09-20T14:40:51;48.77;42.01;60.50;;
1754;Laerm;58380;48.312;9.246;2022-09-20T14:43:37;50.96;43.91;64.38;;
1754;Laerm;58380;48.312;9.246;2022-09-20T14:46:14;48.39;40.92;59.42;;
1754;Laerm;58380;48.312;9.246;2022-09-20T14:48:40;47.43;40.34;58.95;;
1754;Laerm;58380;48.312;9.246;2022-09-20T14:53:47;48.16;40.39;59.96;;
1754;Laerm;58380;48.312;9.246;2022-09-20T14:56:16;48.68;41.60;57.03;;
1754;Laerm;58380;48.312;9.246;2022-09-20T15:01:44;50.02;41.91;58.26;;
1754;Laerm;58380;48.312;9.246;2022-09-20T15:04:20;49.78;42.52;55.36;;
1754;Laerm;58380;48.312;9.246;2022-09-20T15:06:50;48.27;40.05;55.71;;
1754;Laerm;58380;48.312;9.246;2022-09-20T15:09:18;47.84;39.90;53.96;;
1754;Laerm;58380;48.312;9.246;2022-09-20T15:11:44;47.69;41.51;56.06;;
1754;Laerm;58380;48.312;9.246;2022-09-20T15:14:11;48.04;42.50;57.95;;
1754;Laerm;58380;48.312;9.246;2022-09-20T15:16:36;47.95;41.38;60.49;;
1754;Laerm;58380;48.312;9.246;2022-09-20T15:19:02;49.07;38.96;57.33;;
1754;Laerm;58380;48.312;9.246;2022-09-20T15:21:29;51.05;40.30;62.12;;
1754;Laerm;58380;48.312;9.246;2022-09-20T15:23:55;50.22;41.17;63.13;;
1754;Laerm;58380;48.312;9.246;2022-09-20T15:26:20;48.54;40.61;59.79;;
1754;Laerm;58380;48.312;9.246;2022-09-20T15:28:47;47.69;41.70;58.04;;
1754;Laerm;58380;48.312;9.246;2022-09-20T15:31:12;48.26;40.60;57.60;;
1754;Laerm;58380;48.312;9.246;2022-09-20T15:33:40;47.13;39.73;55.84;;
1754;Laerm;58380;48.312;9.246;2022-09-20T15:36:06;48.39;42.88;56.60;;
1754;Laerm;58380;48.312;9.246;2022-09-20T15:38:33;47.94;39.72;62.70;;
1754;Laerm;58380;48.312;9.246;2022-09-20T15:41:00;48.90;43.75;60.87;;
1754;Laerm;58380;48.312;9.246;2022-09-20T15:43:27;43.59;37.64;55.25;;
1754;Laerm;58380;48.312;9.246;2022-09-20T15:46:31;48.51;40.48;55.83;;
1754;Laerm;58380;48.312;9.246;2022-09-20T15:48:52;48.65;42.39;56.78;;
1754;Laerm;58380;48.312;9.246;2022-09-20T15:51:18;49.32;43.16;56.95;;
1754;Laerm;58380;48.312;9.246;2022-09-20T15:54:04;47.27;39.34;64.31;;
1754;Laerm;58380;48.312;9.246;2022-09-20T15:56:37;52.34;41.72;64.68;;
1754;Laerm;58380;48.312;9.246;2022-09-20T15:59:07;52.78;37.70;68.30;;
1754;Laerm;58380;48.312;9.246;2022-09-20T16:01:37;46.97;39.12;57.83;;
1754;Laerm;58380;48.312;9.246;2022-09-20T16:04:30;47.21;38.46;56.64;;
1754;Laerm;58380;48.312;9.246;2022-09-20T16:06:58;45.83;38.70;57.27;;
1754;Laerm;58380;48.312;9.246;2022-09-20T16:09:24;43.59;34.99;54.07;;
1754;Laerm;58380;48.312;9.246;2022-09-20T16:11:49;45.39;33.87;63.02;;
1754;Laerm;58380;48.312;9.246;2022-09-20T16:14:15;44.96;38.01;52.05;;
1754;Laerm;58380;48.312;9.246;2022-09-20T16:16:40;47.65;40.81;58.20;;
1754;Laerm;58380;48.312;9.246;2022-09-20T16:19:08;44.20;32.96;51.46;;
1754;Laerm;58380;48.312;9.246;2022-09-20T16:21:51;46.52;38.79;58.17;;
1754;Laerm;58380;48.312;9.246;2022-09-20T16:24:22;42.30;33.07;49.94;;
1754;Laerm;58380;48.312;9.246;2022-09-20T16:26:49;44.55;34.26;53.89;;
1754;Laerm;58380;48.312;9.246;2022-09-20T16:29:14;43.25;35.63;61.18;;
1754;Laerm;58380;48.312;9.246;2022-09-20T16:31:47;44.80;34.97;57.03;;
1754;Laerm;58380;48.312;9.246;2022-09-20T16:34:24;44.15;34.43;54.46;;
1754;Laerm;58380;48.312;9.246;2022-09-20T16:36:56;48.24;36.51;69.39;;
1754;Laerm;58380;48.312;9.246;2022-09-20T16:39:24;45.99;38.35;56.56;;
1754;Laerm;58380;48.312;9.246;2022-09-20T16:42:00;45.22;38.48;50.86;;
1754;Laerm;58380;48.312;9.246;2022-09-20T16:44:35;43.48;36.04;48.95;;
1754;Laerm;58380;48.312;9.246;2022-09-20T16:47:03;42.73;30.93;52.26;;
1754;Laerm;58380;48.312;9.246;2022-09-20T16:49:32;47.73;32.39;56.83;;
1754;Laerm;58380;48.312;9.246;2022-09-20T16:52:00;43.84;36.02;51.12;;
1754;Laerm;58380;48.312;9.246;2022-09-20T16:54:26;44.03;35.08;49.90;;
1754;Laerm;58380;48.312;9.246;2022-09-20T16:56:51;45.06;37.75;53.08;;
1754;Laerm;58380;48.312;9.246;2022-09-20T16:59:19;46.14;36.45;52.63;;
1754;Laerm;58380;48.312;9.246;2022-09-20T17:01:50;41.85;31.04;49.24;;
1754;Laerm;58380;48.312;9.246;2022-09-20T17:04:16;43.25;31.39;50.14;;
1754;Laerm;58380;48.312;9.246;2022-09-20T17:06:43;45.47;34.12;56.98;;
1754;Laerm;58380;48.312;9.246;2022-09-20T17:09:11;44.20;34.97;51.75;;
1754;Laerm;58380;48.312;9.246;2022-09-20T17:11:40;45.68;36.50;52.89;;
1754;Laerm;58380;48.312;9.246;2022-09-20T17:14:06;43.79;32.58;50.05;;
1754;Laerm;58380;48.312;9.246;2022-09-20T17:16:37;44.99;32.39;61.37;;
1754;Laerm;58380;48.312;9.246;2022-09-20T17:19:11;45.80;37.99;58.37;;
1754;Laerm;58380;48.312;9.246;2022-09-20T17:21:40;46.55;38.50;55.92;;
1754;Laerm;58380;48.312;9.246;2022-09-20T17:24:13;41.81;32.39;48.88;;
1754;Laerm;58380;48.312;9.246;2022-09-20T17:26:41;43.58;35.00;50.64;;
1754;Laerm;58380;48.312;9.246;2022-09-20T17:29:11;45.45;34.38;56.51;;
1754;Laerm;58380;48.312;9.246;2022-09-20T17:31:41;42.51;36.01;48.94;;
1754;Laerm;58380;48.312;9.246;2022-09-20T17:34:11;39.53;29.73;47.94;;
1754;Laerm;58380;48.312;9.246;2022-09-20T17:36:40;44.29;33.44;51.64;;
1754;Laerm;58380;48.312;9.246;2022-09-20T17:39:08;43.85;32.68;56.49;;
1754;Laerm;58380;48.312;9.246;2022-09-20T17:41:35;45.96;37.47;58.96;;
1754;Laerm;58380;48.312;9.246;2022-09-20T17:44:02;44.35;36.34;51.22;;
1754;Laerm;58380;48.312;9.246;2022-09-20T17:46:33;43.36;34.51;52.75;;
1754;Laerm;58380;48.312;9.246;2022-09-20T17:49:04;43.99;32.12;68.83;;
1754;Laerm;58380;48.312;9.246;2022-09-20T17:51:40;42.03;30.80;53.61;;
1754;Laerm;58380;48.312;9.246;2022-09-20T17:54:07;43.71;30.09;50.45;;
1754;Laerm;58380;48.312;9.246;2022-09-20T17:56:33;41.76;33.20;56.17;;
1754;Laerm;58380;48.312;9.246;2022-09-20T17:59:04;42.59;32.77;56.09;;
1754;Laerm;58380;48.312;9.246;2022-09-20T18:01:33;42.77;35.35;55.64;;
1754;Laerm;58380;48.312;9.246;2022-09-20T18:04:01;41.26;30.51;48.34;;
1754;Laerm;58380;48.312;9.246;2022-09-20T18:06:30;41.81;31.37;48.88;;
1754;Laerm;58380;48.312;9.246;2022-09-20T18:09:04;43.99;33.04;56.45;;
1754;Laerm;58380;48.312;9.246;2022-09-20T18:11:32;40.66;32.99;47.93;;
1754;Laerm;58380;48.312;9.246;2022-09-20T18:14:00;38.64;30.88;47.13;;
1754;Laerm;58380;48.312;9.246;2022-09-20T18:16:25;40.51;30.80;48.83;;
1754;Laerm;58380;48.312;9.246;2022-09-20T18:18:51;38.45;29.54;47.62;;
1754;Laerm;58380;48.312;9.246;2022-09-20T18:21:25;44.65;33.35;60.21;;
1754;Laerm;58380;48.312;9.246;2022-09-20T18:23:52;43.03;34.93;50.05;;
1754;Laerm;58380;48.312;9.246;2022-09-20T18:26:19;43.06;33.43;54.58;;
1754;Laerm;58380;48.312;9.246;2022-09-20T18:29:13;44.09;33.64;53.45;;
1754;Laerm;58380;48.312;9.246;2022-09-20T18:31:50;40.05;28.71;52.62;;
1754;Laerm;58380;48.312;9.246;2022-09-20T18:34:23;40.09;30.45;51.14;;
1754;Laerm;58380;48.312;9.246;2022-09-20T18:36:55;45.88;29.37;57.36;;
1754;Laerm;58380;48.312;9.246;2022-09-20T18:39:24;46.11;33.64;58.28;;
1754;Laerm;58380;48.312;9.246;2022-09-20T18:41:51;43.37;32.12;58.19;;
1754;Laerm;58380;48.312;9.246;2022-09-20T18:44:18;40.44;28.72;58.43;;
1754;Laerm;58380;48.312;9.246;2022-09-20T18:46:45;40.29;29.15;53.76;;
1754;Laerm;58380;48.312;9.246;2022-09-20T18:49:12;40.83;29.46;52.32;;
1754;Laerm;58380;48.312;9.246;2022-09-20T18:51:38;40.90;29.28;55.55;;
1754;Laerm;58380;48.312;9.246;2022-09-20T18:54:04;38.94;29.52;51.68;;
1754;Laerm;58380;48.312;9.246;2022-09-20T18:56:32;40.51;32.08;48.57;;
1754;Laerm;58380;48.312;9.246;2022-09-20T18:59:11;42.23;29.16;61.33;;
1754;Laerm;58380;48.312;9.246;2022-09-20T19:01:54;40.97;31.13;48.89;;
1754;Laerm;58380;48.312;9.246;2022-09-20T19:07:35;42.81;28.77;50.81;;
1754;Laerm;58380;48.312;9.246;2022-09-20T19:15:37;39.30;28.00;54.65;;
1754;Laerm;58380;48.312;9.246;2022-09-20T19:21:27;38.39;29.21;50.63;;
1754;Laerm;58380;48.312;9.246;2022-09-20T19:24:21;40.61;30.77;47.64;;
1754;Laerm;58380;48.312;9.246;2022-09-20T19:26:52;36.84;29.20;47.56;;
1754;Laerm;58380;48.312;9.246;2022-09-20T19:29:25;39.37;29.07;47.02;;
1754;Laerm;58380;48.312;9.246;2022-09-20T19:31:57;40.47;28.37;49.79;;
1754;Laerm;58380;48.312;9.246;2022-09-20T19:34:30;41.61;28.97;49.64;;
1754;Laerm;58380;48.312;9.246;2022-09-20T19:40:13;41.35;29.61;53.35;;
1754;Laerm;58380;48.312;9.246;2022-09-20T19:43:04;41.74;29.31;56.02;;
1754;Laerm;58380;48.312;9.246;2022-09-20T19:50:52;43.73;29.26;61.19;;
1754;Laerm;58380;48.312;9.246;2022-09-20T19:53:21;40.33;29.19;48.71;;
1754;Laerm;58380;48.312;9.246;2022-09-20T19:55:57;37.00;29.03;48.76;;
1754;Laerm;58380;48.312;9.246;2022-09-20T19:58:24;43.71;29.39;58.19;;
1754;Laerm;58380;48.312;9.246;2022-09-20T20:00:50;39.10;28.34;47.53;;
1754;Laerm;58380;48.312;9.246;2022-09-20T20:03:16;43.78;31.09;55.59;;
1754;Laerm;58380;48.312;9.246;2022-09-20T20:05:57;39.27;30.89;46.87;;
1754;Laerm;58380;48.312;9.246;2022-09-20T20:08:38;38.12;28.53;45.79;;
1754;Laerm;58380;48.312;9.246;2022-09-20T20:14:20;36.65;28.54;46.28;;
1754;Laerm;58380;48.312;9.246;2022-09-20T20:26:18;39.78;29.24;52.33;;
1754;Laerm;58380;48.312;9.246;2022-09-20T20:28:44;40.25;28.87;53.91;;
1754;Laerm;58380;48.312;9.246;2022-09-20T20:31:09;37.37;29.33;44.72;;
1754;Laerm;58380;48.312;9.246;2022-09-20T20:33:37;40.31;29.35;49.49;;
1754;Laerm;58380;48.312;9.246;2022-09-20T20:36:04;36.94;27.94;47.58;;
1754;Laerm;58380;48.312;9.246;2022-09-20T20:38:34;41.64;28.80;51.46;;
1754;Laerm;58380;48.312;9.246;2022-09-20T20:41:07;40.65;30.98;49.74;;
1754;Laerm;58380;48.312;9.246;2022-09-20T20:43:39;38.56;30.70;46.93;;
1754;Laerm;58380;48.312;9.246;2022-09-20T20:46:08;41.59;29.02;51.70;;
1754;Laerm;58380;48.312;9.246;2022-09-20T20:48:35;39.69;29.98;57.01;;
1754;Laerm;58380;48.312;9.246;2022-09-20T20:51:07;38.23;28.65;48.20;;
1754;Laerm;58380;48.312;9.246;2022-09-20T20:53:42;36.01;28.41;49.62;;
